Terminal Aerodrome Forecast
Issued by NWS

Home | Current Version | Previous Version | Text Only | Print | Product List | Glossary On
Versions: 1 2 3 4 5 6 7 8 9 10 11 12 13 14 15 16 17 18 19 20 21 22 23 24 25 26 27 28
000
FTUS46 KSGX 012029 AAA
TAFSAN
TAF AMD
KSAN 012029Z 0120/0224 22010KT P6SM FEW030 SCT250
     FM020200 VRB05KT P6SM SCT025 SCT250
      TEMPO 0203/0207 BKN025
     FM020700 14008KT P6SM BKN025
     FM021600 16009KT P6SM SCT030 SCT200
     FM021900 25009KT P6SM FEW200=

USA.gov is the U.S. government's official web portal to all federal, state and local government web resources and services.